»·PEaware :: N4D KMFR-KSAC

N4D :: KMFR-KSAC

FLIGHT INFORMATION

Flight Status: Arrived
Operator: Privately registered:
United States
More flights under this callsign
Pilot: Alec D. (17934)
Aircraft: CESSNA 441 CONQUEST 2
(C441)
More flights by this aircraft type
Origin: KMFR Rogue Valley Intl-Medford
United States
Destination: KSAC Sacramento Executive
United States
More flights between these airports :: More routes between these airports
Route: GNATS7 HANDY J126 SAC
File this flight plan on PilotEdge
Remarks:
Altitude:
(Current/Filed)
25,000ft
Speed:
(Current/Filed)
270kts
Departed: 09-Nov-18 07:27 PM
Arrived: 09-Nov-18 08:26 PM
Distance/Time
Traveled:
240nm/0:58
Distance/Time
To Go:
Arrived

Flight Plot

Page will automatically refresh every two minutes.

Flight plan parsing failed; only flown route is shown


Map Options




Map Legend


Flown Route
Filed Route
Departure Airport
Arrival Airport
Navaid (VOR, NDB)
Fix

Horizontal Profiles

Position Reports

Time Latitude Longitude Heading Altitude Ground
Speed
09-Nov-18 19:08 42.369915 -122.873965 203 1338ft 0kts
09-Nov-18 19:09 42.369915 -122.873965 203 1338ft 0kts
09-Nov-18 19:10 42.369915 -122.873965 203 1338ft 0kts
09-Nov-18 19:11 42.369913 -122.873966 203 1338ft 0kts
09-Nov-18 19:12 42.369909 -122.873968 203 1338ft 0kts
09-Nov-18 19:13 42.369904 -122.873971 203 1338ft 0kts
09-Nov-18 19:14 42.369899 -122.873974 202 1338ft 0kts
09-Nov-18 19:15 42.369894 -122.873977 202 1338ft 0kts
09-Nov-18 19:16 42.369889 -122.873980 202 1338ft 0kts
09-Nov-18 19:17 42.369884 -122.873982 202 1338ft 0kts
09-Nov-18 19:18 42.369878 -122.873986 202 1338ft 0kts
09-Nov-18 19:19 42.369873 -122.873988 202 1338ft 0kts
09-Nov-18 19:20 42.369868 -122.873991 202 1338ft 0kts
09-Nov-18 19:21 42.369863 -122.873994 202 1338ft 0kts
09-Nov-18 19:22 42.369858 -122.873997 202 1338ft 0kts
09-Nov-18 19:23 42.370406 -122.874668 316 1338ft 8kts
09-Nov-18 19:24 42.370533 -122.874723 20 1338ft 2kts
09-Nov-18 19:25 42.374458 -122.875798 356 1338ft 14kts
09-Nov-18 19:26 42.379611 -122.877313 338 1338ft 24kts
09-Nov-18 19:27 42.385395 -122.880150 30 1338ft 11kts
09-Nov-18 19:28 42.385543 -122.879907 77 1338ft 0kts
09-Nov-18 19:29 42.385380 -122.878752 160 1338ft 7kts
09-Nov-18 19:30 42.364640 -122.869207 174 1852ft 135kts
09-Nov-18 19:31 42.346301 -122.900274 295 3554ft 167kts
09-Nov-18 19:32 42.387963 -122.917924 334 5961ft 164kts
09-Nov-18 19:33 42.412430 -122.980154 289 8513ft 170kts
09-Nov-18 19:34 42.413671 -123.038660 219 10732ft 175kts
09-Nov-18 19:35 42.363459 -123.026923 166 12589ft 201kts
09-Nov-18 19:36 42.307489 -123.006133 168 14282ft 213kts
09-Nov-18 19:37 42.259128 -122.988650 168 15760ft 217kts
09-Nov-18 19:38 42.190249 -122.963831 169 17857ft 222kts
09-Nov-18 19:39 42.139819 -122.945703 169 19364ft 226kts
09-Nov-18 19:40 42.078373 -122.923650 169 21161ft 230kts
09-Nov-18 19:41 42.004102 -122.897076 169 23269ft 243kts
09-Nov-18 19:42 41.947993 -122.877052 168 24790ft 256kts
09-Nov-18 19:43 41.872770 -122.850330 168 25284ft 305kts
09-Nov-18 19:44 41.787723 -122.820069 168 25277ft 322kts
09-Nov-18 19:45 41.700692 -122.789195 168 25272ft 325kts
09-Nov-18 19:46 41.613418 -122.758335 168 25268ft 325kts
09-Nov-18 19:47 41.524645 -122.727046 167 25263ft 332kts
09-Nov-18 19:48 41.435023 -122.695535 167 25255ft 333kts
09-Nov-18 19:49 41.345432 -122.664129 167 25249ft 333kts
09-Nov-18 19:50 41.256473 -122.633036 167 25233ft 332kts
09-Nov-18 19:51 41.166281 -122.601601 167 25228ft 331kts
09-Nov-18 19:52 41.076875 -122.570528 167 25222ft 331kts
09-Nov-18 19:53 40.987977 -122.539719 167 25213ft 330kts
09-Nov-18 19:54 40.899270 -122.509061 166 25204ft 330kts
09-Nov-18 19:55 40.810369 -122.478422 166 25195ft 329kts
09-Nov-18 19:56 40.721975 -122.448043 166 25184ft 328kts
09-Nov-18 19:57 40.633634 -122.417764 166 25172ft 328kts
09-Nov-18 19:58 40.545229 -122.387547 166 25165ft 327kts
09-Nov-18 19:59 40.457302 -122.357573 166 25163ft 326kts
09-Nov-18 20:00 40.369192 -122.327619 166 25168ft 326kts
09-Nov-18 20:01 40.281621 -122.297930 166 25176ft 325kts
09-Nov-18 20:02 40.194554 -122.268495 166 24041ft 315kts
09-Nov-18 20:03 40.111916 -122.240627 166 22627ft 300kts
09-Nov-18 20:04 40.032417 -122.208911 162 21027ft 297kts
09-Nov-18 20:05 39.955003 -122.175468 163 20192ft 293kts
09-Nov-18 20:06 39.876493 -122.142245 163 19847ft 304kts
09-Nov-18 20:07 39.795230 -122.108051 163 18354ft 307kts
09-Nov-18 20:08 39.714242 -122.074059 163 16851ft 303kts
09-Nov-18 20:09 39.635326 -122.041014 163 16017ft 292kts
09-Nov-18 20:10 39.559340 -122.009266 163 16006ft 284kts
09-Nov-18 20:11 39.484021 -121.977878 163 16007ft 283kts
09-Nov-18 20:12 39.409132 -121.946743 163 16006ft 283kts
09-Nov-18 20:13 39.333993 -121.915572 163 16007ft 283kts
09-Nov-18 20:14 39.259115 -121.884583 163 16007ft 282kts
09-Nov-18 20:15 39.184439 -121.853744 163 15855ft 286kts
09-Nov-18 20:16 39.106965 -121.821847 163 14068ft 293kts
09-Nov-18 20:17 39.031001 -121.790616 163 12177ft 278kts
09-Nov-18 20:18 38.958622 -121.760944 162 10375ft 267kts
09-Nov-18 20:19 38.888811 -121.732385 162 8651ft 258kts
09-Nov-18 20:20 38.821470 -121.704879 162 7053ft 251kts
09-Nov-18 20:21 38.754838 -121.677717 162 5276ft 247kts
09-Nov-18 20:22 38.690166 -121.651405 162 3478ft 240kts
09-Nov-18 20:23 38.629561 -121.627129 163 1951ft 214kts
09-Nov-18 20:24 38.582339 -121.599869 147 1676ft 164kts
09-Nov-18 20:25 38.547745 -121.570147 150 1668ft 150kts
09-Nov-18 20:26 38.507743 -121.573705 180 1389ft 140kts
09-Nov-18 20:27 38.484997 -121.536048 96 764ft 140kts
09-Nov-18 20:28 38.502277 -121.503111 32 123ft 117kts
09-Nov-18 20:29 38.512392 -121.496139 274 27ft 0kts
09-Nov-18 20:30 38.513461 -121.496701 33 27ft 12kts
09-Nov-18 20:31 38.514449 -121.498093 215 27ft 0kts
09-Nov-18 20:32 38.514446 -121.498095 215 27ft 0kts
09-Nov-18 20:33 38.514446 -121.498095 215 27ft 0kts
09-Nov-18 20:34 38.514446 -121.498095 215 27ft 0kts

Navigation Log

Ident Type
Flight plan parsing failed, navigation log unavailable